Springfield, IL (62723)

1:01 PM CDT on August 29, 2015 (GMT -0500)
Southwest Springfield | | Change Station
CLOSE
Current Station
Personal Weather Station
Location: Springfield, IL
Elevation: 607 ft
Nearby Weather Stations

Elev 607 ft 39.76 °N, 89.68 °W | Updated 0 second ago

Mostly Cloudy
Mostly Cloudy
79.5 °F
Feels Like 82 °F
N
6.9
Wind Variable Wind from West
Gusts 6.9 mph

Today
High -- | Low -- °F
--% Chance of Precip.
Yesterday
High -- | Low -- °F
Precip. -- in
6:23 AM 7:34 PM
Full, 100% visible
Pressure 30.01 in
Visibility 10.0 miles
Clouds Mostly Cloudy 7000 ft
Heat Index 82 °F
Dew Point 70 °F
Humidity 73%
Rainfall 0.00 in
Snow Depth Not available.
UV 5 out of 12
Pollen 7.40 out of 12
Air Quality Not available.
Flu Activity Not available.
METAR KSPI 291752Z 20006KT 10SM BKN070 26/19 A3002 RMK AO2 SLP161 60000 T02560194 10261 20206 58001
Pressure 30.01 in
Visibility 10.0 miles
Clouds Mostly Cloudy 7000 ft
Heat Index 82 °F
Dew Point 70 °F
Humidity 73%
Rainfall 0.00 in
Snow Depth Not available.
UV 5 out of 12
Pollen 7.40 out of 12
Air Quality Not available.
Flu Activity Not available.
METAR KSPI 291752Z 20006KT 10SM BKN070 26/19 A3002 RMK AO2 SLP161 60000 T02560194 10261 20206 58001

10-Day Weather Forecast

×

Almanac

Astronomy

Aug. 29, 2015 Rise Set
Actual Time
Civil Twilight
Nautical Twilight
Astronomical Twilight
Moon
Length of Visible Light
Length of Day
Tomorrow will be .
, % of the Moon is Illuminated

Today's Extremes

State Highs State Lows

Community

WunderPhotos

Upload Photos

1,850,750 photos uploaded!

WunderBlogs® & News

Nearby

Air Quality

  Air Quality AQ Index Pollutant
Not available.

Snow Depth

Station Depth Elevation

Earthquake Activity

City Distance Mag. Time & Date
Minimum magnitude displayed is 2.5.

Coastal Water Temperatures

Place Temperature

Stations

Nearby Weather Stations

Station Location Temp. Windchill Dew Point Humidity Wind Precip. Elev Updated Type